Terminal Aerodrome Forecast
Issued by NWS Northern Indiana

Home | Current Version | Previous Version | Graphics & Text | Print | Product List | Glossary On
Versions: 1 2 3 4 5 6 7 8 9 10 11 12 13 14 15
000
FTUS43 KIWX 142335
TAFFWA
TAF
KFWA 142335Z 1500/1524 16008KT P6SM BKN100
     FM150600 14009KT 4SM -SN OVC025
     FM150900 14010KT 1SM -SN BR OVC010
     FM151400 15011KT 3/4SM -SN BR OVC008=

USA.gov is the U.S. government's official web portal to all federal, state and local government web resources and services.